createdAt,value
2019-05-18T00:01:01.542Z,14.00
2019-05-18T00:03:31.316Z,13.90
2019-05-18T00:06:00.750Z,14.00
2019-05-18T00:08:30.250Z,13.90
2019-05-18T00:10:59.756Z,13.90
2019-05-18T00:13:29.370Z,13.80
2019-05-18T00:15:58.782Z,13.90
2019-05-18T00:18:28.170Z,13.80
2019-05-18T00:20:57.734Z,13.80
2019-05-18T00:23:27.183Z,13.90
2019-05-18T00:25:56.663Z,13.90
2019-05-18T00:28:26.126Z,13.90
2019-05-18T00:30:55.727Z,13.80
2019-05-18T00:33:25.321Z,13.70
2019-05-18T00:35:54.801Z,13.80
2019-05-18T00:38:24.526Z,13.80
2019-05-18T00:40:53.894Z,13.70
2019-05-18T00:43:23.778Z,13.70
2019-05-18T00:45:53.210Z,13.70
2019-05-18T00:48:22.733Z,13.60
2019-05-18T00:50:52.235Z,13.60
2019-05-18T00:53:21.721Z,13.60
2019-05-18T00:55:51.148Z,13.70
2019-05-18T00:58:20.709Z,13.60
2019-05-18T01:00:50.187Z,13.60
2019-05-18T01:03:19.660Z,13.60
2019-05-18T01:05:49.210Z,13.50
2019-05-18T01:08:18.699Z,13.60
2019-05-18T01:10:48.219Z,13.60
2019-05-18T01:13:17.702Z,13.60
2019-05-18T01:15:47.112Z,13.50
2019-05-18T01:18:16.571Z,13.50
2019-05-18T01:20:47.016Z,13.50
2019-05-18T01:23:16.470Z,13.50
2019-05-18T01:25:46.080Z,13.40
2019-05-18T01:28:15.503Z,13.40
2019-05-18T01:30:45.192Z,13.40
2019-05-18T01:33:14.653Z,13.40
2019-05-18T01:35:44.160Z,13.40
2019-05-18T01:38:13.672Z,13.40
2019-05-18T01:40:43.083Z,13.40
2019-05-18T01:43:12.616Z,13.40
2019-05-18T01:45:42.063Z,13.40
2019-05-18T01:48:14.422Z,13.40
2019-05-18T01:50:42.698Z,13.40
2019-05-18T01:53:12.241Z,13.30
2019-05-18T01:55:41.679Z,13.20
2019-05-18T01:58:11.079Z,13.20
2019-05-18T02:00:40.555Z,13.30
2019-05-18T02:03:10.055Z,13.40
2019-05-18T02:05:39.496Z,13.30
2019-05-18T02:08:09.054Z,13.30
2019-05-18T02:10:38.486Z,13.30
2019-05-18T02:13:07.951Z,13.40
2019-05-18T02:15:37.359Z,13.40
2019-05-18T02:18:06.737Z,13.30
2019-05-18T02:20:36.204Z,13.30
2019-05-18T02:23:05.738Z,13.30
2019-05-18T02:25:35.431Z,13.40
2019-05-18T02:28:06.594Z,13.20
2019-05-18T02:30:36.041Z,13.10
2019-05-18T02:33:05.474Z,13.00
2019-05-18T02:35:34.939Z,12.90
2019-05-18T02:38:15.405Z,12.90
2019-05-18T02:40:46.007Z,13.00
2019-05-18T02:43:16.144Z,13.00
2019-05-18T02:45:45.747Z,13.00
2019-05-18T02:48:15.152Z,13.10
2019-05-18T02:50:44.659Z,13.20
2019-05-18T02:53:14.060Z,13.20
2019-05-18T02:55:43.587Z,13.20
2019-05-18T02:58:13.028Z,13.20
2019-05-18T03:00:42.583Z,13.20
2019-05-18T03:03:12.031Z,13.20
2019-05-18T03:05:41.559Z,13.30
2019-05-18T03:08:11.017Z,13.20
2019-05-18T03:10:40.586Z,13.30
2019-05-18T03:13:09.986Z,13.30
2019-05-18T03:15:39.351Z,13.30
2019-05-18T03:18:08.843Z,13.40
2019-05-18T03:20:38.307Z,13.40
2019-05-18T03:23:07.840Z,13.40
2019-05-18T03:25:37.275Z,13.40
2019-05-18T03:28:06.660Z,13.40
2019-05-18T03:30:36.128Z,13.50
2019-05-18T03:33:05.681Z,13.50
2019-05-18T03:35:35.220Z,13.60
2019-05-18T03:38:04.842Z,13.60
2019-05-18T03:40:34.502Z,13.60
2019-05-18T03:43:04.119Z,13.70
2019-05-18T03:45:33.687Z,13.70
2019-05-18T03:48:03.175Z,13.80
2019-05-18T03:50:32.658Z,13.80
2019-05-18T03:53:02.020Z,13.90
2019-05-18T03:55:31.752Z,13.90
2019-05-18T03:58:01.119Z,13.90
2019-05-18T04:00:30.681Z,14.00
2019-05-18T04:03:00.332Z,14.00
2019-05-18T04:05:29.739Z,14.10
2019-05-18T04:07:59.194Z,14.10
2019-05-18T04:10:28.991Z,14.10
2019-05-18T04:12:58.343Z,14.10
2019-05-18T04:15:27.794Z,14.20
2019-05-18T04:17:57.154Z,14.20
2019-05-18T04:20:26.609Z,14.20
2019-05-18T04:22:56.095Z,14.20
2019-05-18T04:25:25.523Z,14.20
2019-05-18T04:27:54.975Z,14.30
2019-05-18T04:30:25.137Z,14.30
2019-05-18T04:32:54.580Z,14.40
2019-05-18T04:35:24.059Z,14.40
2019-05-18T04:37:53.500Z,14.40
2019-05-18T04:40:23.061Z,14.60
2019-05-18T04:42:52.543Z,14.60
2019-05-18T04:45:22.001Z,14.60
2019-05-18T04:47:51.436Z,14.60
2019-05-18T04:50:20.854Z,14.50
2019-05-18T04:52:50.391Z,14.50
2019-05-18T04:55:19.879Z,14.50
2019-05-18T04:57:49.396Z,14.60
2019-05-18T05:00:18.816Z,14.60
2019-05-18T05:02:48.280Z,14.50
2019-05-18T05:05:17.725Z,14.40
2019-05-18T05:07:47.225Z,14.40
2019-05-18T05:10:16.746Z,14.50
2019-05-18T05:12:46.305Z,14.50
2019-05-18T05:15:15.789Z,14.50
2019-05-18T05:17:45.236Z,14.50
2019-05-18T05:20:19.643Z,14.40
2019-05-18T05:22:46.362Z,14.40
2019-05-18T05:25:15.706Z,14.40
2019-05-18T05:27:45.280Z,14.40
2019-05-18T05:30:15.111Z,14.40
2019-05-18T05:32:44.807Z,14.40
2019-05-18T05:35:14.243Z,14.40
2019-05-18T05:37:43.740Z,14.30
2019-05-18T05:40:13.548Z,14.30
2019-05-18T05:42:42.959Z,14.20
2019-05-18T05:45:12.786Z,14.20
2019-05-18T05:47:42.207Z,14.20
2019-05-18T05:50:11.726Z,14.20
2019-05-18T05:52:41.438Z,14.20
2019-05-18T05:55:12.910Z,14.10
2019-05-18T05:57:42.340Z,14.10
2019-05-18T06:00:12.146Z,14.10
2019-05-18T06:02:41.624Z,14.20
2019-05-18T06:05:11.281Z,14.20
2019-05-18T06:07:40.831Z,14.10
2019-05-18T06:10:10.472Z,14.10
2019-05-18T06:12:40.051Z,14.10
2019-05-18T06:15:10.430Z,14.10
2019-05-18T06:17:39.917Z,14.10
2019-05-18T06:20:09.949Z,14.20
2019-05-18T06:22:39.516Z,14.10
2019-05-18T06:25:09.463Z,14.10
2019-05-18T06:27:39.029Z,14.10
2019-05-18T06:30:09.206Z,14.10
2019-05-18T06:32:57.714Z,14.20
2019-05-18T06:35:27.248Z,14.20
2019-05-18T06:37:56.715Z,14.30
2019-05-18T06:40:26.145Z,14.30
2019-05-18T06:42:55.530Z,14.30
2019-05-18T06:45:25.012Z,14.30
2019-05-18T06:47:54.526Z,14.40
2019-05-18T06:50:29.916Z,14.40
2019-05-18T06:52:59.460Z,14.50
2019-05-18T06:55:28.991Z,14.50
2019-05-18T06:57:59.175Z,14.50
2019-05-18T07:00:28.615Z,14.60
2019-05-18T07:02:58.107Z,14.60
2019-05-18T07:05:27.565Z,14.60
2019-05-18T07:07:57.122Z,14.60
2019-05-18T07:10:26.528Z,14.70
2019-05-18T07:12:55.990Z,14.60
2019-05-18T07:15:25.435Z,14.70
2019-05-18T07:17:54.902Z,14.70
2019-05-18T07:20:24.382Z,14.80
2019-05-18T07:22:53.758Z,14.80
2019-05-18T07:25:23.223Z,14.80
2019-05-18T07:27:52.651Z,14.80
2019-05-18T07:30:22.159Z,14.80
2019-05-18T07:32:51.635Z,14.80
2019-05-18T07:35:21.347Z,14.90
2019-05-18T07:37:50.802Z,14.90
2019-05-18T07:40:20.213Z,14.90
2019-05-18T07:42:49.754Z,15.00
2019-05-18T07:45:19.299Z,15.00
2019-05-18T07:47:48.862Z,15.00
2019-05-18T07:50:18.495Z,15.10
2019-05-18T07:52:47.954Z,15.10
2019-05-18T07:55:17.311Z,15.10
2019-05-18T07:57:46.763Z,15.20
2019-05-18T08:00:16.498Z,15.20
2019-05-18T08:02:45.959Z,15.20
2019-05-18T08:05:15.535Z,15.20
2019-05-18T08:07:44.905Z,15.20
2019-05-18T08:10:14.863Z,15.40
2019-05-18T08:12:44.295Z,15.40
2019-05-18T08:15:13.965Z,15.40
2019-05-18T08:17:43.342Z,15.30
2019-05-18T08:20:13.144Z,15.30
2019-05-18T08:22:42.759Z,15.30
2019-05-18T08:25:12.724Z,15.30
2019-05-18T08:27:42.073Z,15.30
2019-05-18T08:30:11.785Z,15.30
2019-05-18T08:32:41.882Z,15.30
2019-05-18T08:35:11.324Z,15.30
2019-05-18T08:37:40.826Z,15.30
2019-05-18T08:40:11.242Z,15.30
2019-05-18T08:42:41.324Z,15.30
2019-05-18T08:45:11.163Z,15.30
2019-05-18T08:47:40.678Z,15.20
2019-05-18T08:50:11.331Z,15.30
2019-05-18T08:52:40.830Z,15.30
2019-05-18T08:55:10.675Z,15.40
2019-05-18T08:57:40.033Z,15.40
2019-05-18T09:00:11.595Z,15.40
2019-05-18T09:02:41.125Z,15.50
2019-05-18T09:05:10.845Z,15.60
2019-05-18T09:07:40.331Z,15.70
2019-05-18T09:10:11.861Z,15.70
2019-05-18T09:12:41.249Z,15.70
2019-05-18T09:15:11.901Z,15.80
2019-05-18T09:17:41.387Z,16.10
2019-05-18T09:20:12.193Z,16.20
2019-05-18T09:22:41.855Z,16.30
2019-05-18T09:25:12.459Z,16.40
2019-05-18T09:27:41.876Z,16.50
2019-05-18T09:30:12.228Z,16.50
2019-05-18T09:32:41.678Z,16.70
2019-05-18T09:35:11.266Z,17.00
2019-05-18T09:37:40.733Z,17.30
2019-05-18T09:40:10.586Z,17.40
2019-05-18T09:42:40.021Z,17.50
2019-05-18T09:45:11.423Z,17.90
2019-05-18T09:47:41.006Z,18.10
2019-05-18T09:50:11.160Z,18.30
2019-05-18T09:52:45.783Z,18.40
2019-05-18T09:55:12.006Z,18.70
2019-05-18T09:57:41.491Z,19.00
2019-05-18T10:00:12.006Z,19.00
2019-05-18T10:02:41.459Z,19.20
2019-05-18T10:05:11.224Z,19.30
2019-05-18T10:07:40.574Z,19.60
2019-05-18T10:10:10.819Z,19.70
2019-05-18T10:12:40.309Z,20.00
2019-05-18T10:15:10.238Z,19.80
2019-05-18T10:17:39.718Z,19.60
2019-05-18T10:20:10.018Z,19.70
2019-05-18T10:22:53.389Z,20.00
2019-05-18T10:25:11.394Z,20.00
2019-05-18T10:27:41.055Z,19.90
2019-05-18T10:30:11.061Z,20.20
2019-05-18T10:32:40.643Z,20.40
2019-05-18T10:35:10.479Z,20.30
2019-05-18T10:37:40.160Z,20.40
2019-05-18T10:40:10.067Z,20.40
2019-05-18T10:42:39.654Z,20.50
2019-05-18T10:45:09.790Z,20.30
2019-05-18T10:47:39.364Z,20.60
2019-05-18T10:50:10.109Z,20.80
2019-05-18T10:52:39.577Z,20.80
2019-05-18T10:55:09.964Z,20.60
2019-05-18T10:57:39.427Z,20.50
2019-05-18T11:00:10.435Z,20.20
2019-05-18T11:02:39.949Z,20.20
2019-05-18T11:05:10.127Z,20.60
2019-05-18T11:07:39.654Z,20.60
2019-05-18T11:10:10.165Z,21.00
2019-05-18T11:12:40.000Z,21.20
2019-05-18T11:15:09.902Z,21.40
2019-05-18T11:17:39.313Z,21.20
2019-05-18T11:20:09.840Z,21.40
2019-05-18T11:22:39.456Z,21.10
2019-05-18T11:25:09.567Z,21.70
2019-05-18T11:27:39.005Z,21.40
2019-05-18T11:30:10.181Z,21.50
2019-05-18T11:32:39.858Z,21.70
2019-05-18T11:35:10.163Z,21.90
2019-05-18T11:37:39.759Z,22.50
2019-05-18T11:40:10.086Z,21.90
2019-05-18T11:42:39.571Z,22.00
2019-05-18T11:45:11.008Z,22.20
2019-05-18T11:47:40.500Z,22.10
2019-05-18T11:50:11.300Z,21.90
2019-05-18T11:52:40.749Z,21.90
2019-05-18T11:55:10.412Z,21.60
2019-05-18T11:57:39.762Z,22.10
2019-05-18T12:00:11.288Z,22.10
2019-05-18T12:02:40.880Z,22.60
2019-05-18T12:05:10.979Z,22.60
2019-05-18T12:07:40.396Z,23.00
2019-05-18T12:10:10.894Z,22.90
2019-05-18T12:12:40.252Z,23.40
2019-05-18T12:15:11.058Z,23.60
2019-05-18T12:17:40.483Z,23.50
2019-05-18T12:20:11.740Z,23.30
2019-05-18T12:22:41.135Z,23.80
2019-05-18T12:25:11.154Z,23.90
2019-05-18T12:27:40.818Z,24.70
2019-05-18T12:30:11.263Z,25.20
2019-05-18T12:32:40.774Z,24.80
2019-05-18T12:35:11.650Z,24.60
2019-05-18T12:37:41.138Z,24.80
2019-05-18T12:40:11.506Z,25.20
2019-05-18T12:42:41.022Z,25.90
2019-05-18T12:45:11.011Z,26.20
2019-05-18T12:47:40.417Z,26.50
2019-05-18T12:50:11.678Z,27.40
2019-05-18T12:52:41.077Z,26.10
2019-05-18T12:55:10.630Z,27.20
2019-05-18T12:57:40.144Z,26.60
2019-05-18T13:00:10.495Z,26.40
2019-05-18T13:02:40.016Z,27.80
2019-05-18T13:05:10.091Z,27.40
2019-05-18T13:07:39.651Z,27.10
2019-05-18T13:10:11.359Z,27.50
2019-05-18T13:12:40.856Z,27.60
2019-05-18T13:15:12.345Z,27.90
2019-05-18T13:17:41.806Z,27.60
2019-05-18T13:20:12.166Z,27.20
2019-05-18T13:22:41.530Z,27.20
2019-05-18T13:25:11.845Z,28.70
2019-05-18T13:27:41.422Z,29.60
2019-05-18T13:30:11.636Z,29.00
2019-05-18T13:32:41.362Z,29.70
2019-05-18T13:35:11.571Z,29.00
2019-05-18T13:37:40.959Z,29.30
2019-05-18T13:40:12.465Z,28.60
2019-05-18T13:42:41.962Z,27.90
2019-05-18T13:45:13.629Z,27.20
2019-05-18T13:47:43.124Z,26.90
2019-05-18T13:50:13.339Z,27.90
2019-05-18T13:52:42.762Z,28.70
2019-05-18T13:55:12.211Z,29.10
2019-05-18T13:57:41.705Z,30.00
2019-05-18T14:00:11.415Z,30.60
2019-05-18T14:02:40.797Z,31.20
2019-05-18T14:05:10.627Z,29.40
2019-05-18T14:07:40.650Z,28.90
2019-05-18T14:10:12.580Z,30.00
2019-05-18T14:12:42.144Z,31.30
2019-05-18T14:15:12.916Z,30.50
2019-05-18T14:17:42.436Z,30.20
2019-05-18T14:20:13.499Z,30.30
2019-05-18T14:22:42.898Z,30.50
2019-05-18T14:25:19.430Z,30.00
2019-05-18T14:27:43.513Z,30.20
2019-05-18T14:30:13.591Z,30.00
2019-05-18T14:32:43.012Z,30.80
2019-05-18T14:35:12.480Z,30.20
2019-05-18T14:37:41.856Z,29.80
2019-05-18T14:40:11.711Z,31.00
2019-05-18T14:42:41.193Z,32.50
2019-05-18T14:45:11.086Z,31.80
2019-05-18T14:47:40.450Z,32.20
2019-05-18T14:50:10.533Z,31.70
2019-05-18T14:52:40.098Z,31.50
2019-05-18T14:55:09.966Z,30.90
2019-05-18T14:57:39.478Z,30.90
2019-05-18T15:00:11.018Z,30.60
2019-05-18T15:02:40.449Z,31.00
2019-05-18T15:05:10.371Z,31.30
2019-05-18T15:07:39.856Z,31.80
2019-05-18T15:10:09.989Z,32.10
2019-05-18T15:12:39.542Z,32.80
2019-05-18T15:15:09.977Z,31.40
2019-05-18T15:17:39.617Z,30.20
2019-05-18T15:20:09.454Z,30.70
2019-05-18T15:22:39.016Z,30.70
2019-05-18T15:25:09.130Z,30.60
2019-05-18T15:27:38.564Z,30.40
2019-05-18T15:30:08.578Z,29.00
2019-05-18T15:32:38.033Z,28.00
2019-05-18T15:35:08.303Z,27.00
2019-05-18T15:37:37.950Z,26.40
2019-05-18T15:40:07.926Z,25.80
2019-05-18T15:42:37.440Z,25.60
2019-05-18T15:45:07.176Z,26.30
2019-05-18T15:47:36.691Z,26.90
2019-05-18T15:50:06.323Z,27.30
2019-05-18T15:52:35.818Z,27.90
2019-05-18T15:55:05.755Z,27.70
2019-05-18T15:57:35.267Z,28.20
2019-05-18T16:00:06.834Z,27.70
2019-05-18T16:02:36.383Z,28.40
2019-05-18T16:05:06.172Z,28.00
2019-05-18T16:07:35.828Z,28.10
2019-05-18T16:10:06.211Z,28.50
2019-05-18T16:12:35.574Z,28.30
2019-05-18T16:15:05.934Z,27.20
2019-05-18T16:17:39.356Z,27.30
2019-05-18T16:20:07.228Z,26.80
2019-05-18T16:22:36.726Z,27.20
2019-05-18T16:25:07.261Z,27.10
2019-05-18T16:27:36.819Z,26.70
2019-05-18T16:30:06.779Z,25.30
2019-05-18T16:32:36.311Z,25.90
2019-05-18T16:35:06.555Z,25.60
2019-05-18T16:37:35.986Z,25.70
2019-05-18T16:40:06.067Z,25.80
2019-05-18T16:42:35.524Z,25.30
2019-05-18T16:45:05.866Z,24.80
2019-05-18T16:47:35.302Z,24.80
2019-05-18T16:50:05.430Z,24.20
2019-05-18T16:52:34.799Z,23.60
2019-05-18T16:55:04.339Z,23.80
2019-05-18T16:57:33.766Z,24.30
2019-05-18T17:00:03.122Z,24.50
2019-05-18T17:02:32.599Z,23.70
2019-05-18T17:05:02.124Z,23.50
2019-05-18T17:07:31.789Z,23.40
2019-05-18T17:10:01.259Z,23.20
2019-05-18T17:12:30.823Z,23.20
2019-05-18T17:15:00.367Z,23.20
2019-05-18T17:17:29.812Z,23.00
2019-05-18T17:19:59.300Z,22.60
2019-05-18T17:22:29.814Z,22.60
2019-05-18T17:24:59.229Z,22.50
2019-05-18T17:27:28.579Z,22.10
2019-05-18T17:29:58.169Z,21.70
2019-05-18T17:32:27.606Z,21.50
2019-05-18T17:34:57.157Z,21.30
2019-05-18T17:37:26.609Z,21.20
2019-05-18T17:39:56.022Z,21.10
2019-05-18T17:42:26.342Z,21.40
2019-05-18T17:44:55.771Z,21.50
2019-05-18T17:47:25.156Z,21.50
2019-05-18T17:49:54.587Z,21.90
2019-05-18T17:52:24.036Z,22.30
2019-05-18T17:54:53.600Z,21.60
2019-05-18T17:57:23.167Z,21.60
2019-05-18T17:59:52.546Z,21.60
2019-05-18T18:02:22.141Z,21.50
2019-05-18T18:04:54.170Z,21.60
2019-05-18T18:07:22.887Z,21.40
2019-05-18T18:09:52.331Z,21.40
2019-05-18T18:12:21.911Z,21.30
2019-05-18T18:14:51.412Z,21.20
2019-05-18T18:17:20.815Z,21.30
2019-05-18T18:19:50.279Z,21.00
2019-05-18T18:22:19.725Z,20.70
2019-05-18T18:24:49.364Z,20.60
2019-05-18T18:27:25.211Z,20.50
2019-05-18T18:29:49.982Z,20.30
2019-05-18T18:32:19.442Z,20.10
2019-05-18T18:34:48.876Z,20.00
2019-05-18T18:37:18.342Z,20.10
2019-05-18T18:39:47.913Z,20.20
2019-05-18T18:42:17.474Z,20.00
2019-05-18T18:44:46.967Z,19.90
2019-05-18T18:47:16.575Z,19.90
2019-05-18T18:49:46.168Z,19.80
2019-05-18T18:52:15.615Z,19.70
2019-05-18T18:54:45.023Z,19.60
2019-05-18T18:57:14.451Z,19.40
2019-05-18T18:59:43.842Z,19.10
2019-05-18T19:02:13.391Z,18.90
2019-05-18T19:04:42.915Z,18.90
2019-05-18T19:07:12.459Z,18.70
2019-05-18T19:09:41.798Z,18.60
2019-05-18T19:12:11.471Z,18.40
2019-05-18T19:14:41.180Z,18.80
2019-05-18T19:17:10.738Z,18.90
2019-05-18T19:19:40.372Z,18.80
2019-05-18T19:22:09.791Z,18.40
2019-05-18T19:24:39.326Z,18.30
2019-05-18T19:27:08.751Z,18.30
2019-05-18T19:29:38.363Z,18.20
2019-05-18T19:32:07.935Z,18.30
2019-05-18T19:34:37.515Z,18.10
2019-05-18T19:37:06.995Z,18.00
2019-05-18T19:39:36.436Z,18.00
2019-05-18T19:42:05.951Z,17.90
2019-05-18T19:44:36.156Z,17.90
2019-05-18T19:47:05.564Z,17.90
2019-05-18T19:49:35.073Z,17.90
2019-05-18T19:52:04.619Z,17.80
2019-05-18T19:54:34.088Z,17.80
2019-05-18T19:57:03.826Z,17.80
2019-05-18T19:59:33.270Z,17.90
2019-05-18T20:02:02.850Z,17.80
2019-05-18T20:04:32.374Z,17.80
2019-05-18T20:07:01.848Z,17.80
2019-05-18T20:09:31.357Z,17.70
2019-05-18T20:12:00.970Z,17.70
2019-05-18T20:14:30.688Z,17.70
2019-05-18T20:17:00.181Z,17.60
2019-05-18T20:19:38.549Z,17.70
2019-05-18T20:22:01.041Z,17.70
2019-05-18T20:24:30.478Z,17.60
2019-05-18T20:27:00.302Z,17.60
2019-05-18T20:29:29.792Z,17.60
2019-05-18T20:31:59.287Z,17.50
2019-05-18T20:34:28.854Z,17.40
2019-05-18T20:36:58.285Z,17.40
2019-05-18T20:39:27.817Z,17.20
2019-05-18T20:41:57.206Z,17.20
2019-05-18T20:44:26.802Z,17.20
2019-05-18T20:46:58.772Z,17.20
2019-05-18T20:49:28.325Z,17.30
2019-05-18T20:51:57.832Z,17.30
2019-05-18T20:54:27.318Z,17.40
2019-05-18T20:56:56.733Z,17.40
2019-05-18T20:59:26.194Z,17.40
2019-05-18T21:01:55.734Z,17.30
2019-05-18T21:04:25.190Z,17.30
2019-05-18T21:06:54.642Z,17.20
2019-05-18T21:09:24.049Z,17.10
2019-05-18T21:11:53.546Z,17.00
2019-05-18T21:14:23.069Z,17.00
2019-05-18T21:16:52.624Z,16.90
2019-05-18T21:19:22.126Z,16.90
2019-05-18T21:21:51.623Z,16.80
2019-05-18T21:24:21.072Z,16.70
2019-05-18T21:26:50.576Z,16.80
2019-05-18T21:29:20.057Z,16.70
2019-05-18T21:31:49.427Z,16.70
2019-05-18T21:34:19.203Z,16.80
2019-05-18T21:36:48.915Z,16.80
2019-05-18T21:39:18.351Z,16.80
2019-05-18T21:41:47.772Z,16.80
2019-05-18T21:44:17.334Z,16.80
2019-05-18T21:46:46.763Z,16.70
2019-05-18T21:49:16.234Z,16.70
2019-05-18T21:51:45.664Z,16.90
2019-05-18T21:54:15.223Z,16.90
2019-05-18T21:56:44.667Z,16.90
2019-05-18T21:59:14.107Z,16.80
2019-05-18T22:01:43.574Z,16.70
2019-05-18T22:04:13.075Z,16.70
2019-05-18T22:06:42.610Z,16.70
2019-05-18T22:09:12.047Z,16.60
2019-05-18T22:11:41.551Z,16.50
2019-05-18T22:14:10.988Z,16.50
2019-05-18T22:16:40.739Z,16.40
2019-05-18T22:19:10.711Z,16.40
2019-05-18T22:21:40.306Z,16.40
2019-05-18T22:24:09.771Z,16.40
2019-05-18T22:26:39.205Z,16.40
2019-05-18T22:29:08.635Z,16.30
2019-05-18T22:31:38.127Z,16.30
2019-05-18T22:34:07.595Z,16.30
2019-05-18T22:36:37.048Z,16.20
2019-05-18T22:39:07.493Z,16.20
2019-05-18T22:41:37.018Z,16.20
2019-05-18T22:44:06.572Z,16.10
2019-05-18T22:46:36.003Z,16.10
2019-05-18T22:49:05.440Z,16.10
2019-05-18T22:51:35.052Z,16.10
2019-05-18T22:54:04.655Z,16.10
2019-05-18T22:56:34.101Z,16.10
2019-05-18T22:59:03.579Z,16.20
2019-05-18T23:01:33.015Z,16.10
2019-05-18T23:04:02.519Z,16.10
2019-05-18T23:06:32.010Z,16.10
2019-05-18T23:09:01.676Z,16.20
2019-05-18T23:11:31.059Z,16.20
2019-05-18T23:14:00.495Z,16.20
2019-05-18T23:16:30.007Z,16.30
2019-05-18T23:18:59.498Z,16.20
2019-05-18T23:21:28.942Z,16.20
2019-05-18T23:23:58.435Z,16.10
2019-05-18T23:26:27.853Z,16.20
2019-05-18T23:28:57.352Z,16.10
2019-05-18T23:31:26.842Z,16.10
2019-05-18T23:33:56.242Z,16.10
2019-05-18T23:36:25.719Z,16.10
2019-05-18T23:38:55.276Z,16.10
2019-05-18T23:41:24.751Z,16.10
2019-05-18T23:43:54.114Z,16.00
2019-05-18T23:46:23.638Z,16.10
2019-05-18T23:48:53.107Z,16.00
2019-05-18T23:51:22.623Z,16.00
2019-05-18T23:53:53.766Z,16.10
2019-05-18T23:56:23.262Z,16.00
2019-05-18T23:58:52.628Z,16.00
